General Aviation Weather

Text Reports

Enter one or more of the following location identifiers separated by a space:

Zip Code, Four-Character ICAO or Three-Character IATA airport codes.

METAR - Aviation Routine Weather Report
KAKO - Akron, Colorado
Updated at 10:53 AM GMT on July 25, 2014 (4:53 AM MDT):
METAR KAKO 251053Z AUTO 26012KT 10SM CLR 21/11 A2999 RMK AO2 SLP085 T02110111
TAF - Terminal Area Forecast
KAKO - Akron, Colorado
Updated at 10:53 AM GMT on July 25, 2014 (4:53 AM MDT):
No TAF is currently available for this location.
Decoded:
No decoded TAF is available.
PIREP - Pilot Weather Report
KAKO - Akron, Colorado
Updated at 10:53 AM GMT on July 25, 2014 (4:53 AM MDT):
No PIREP is currently available for this location.
AIRMET - Airmens Meteorological Information
KAKO - Akron, Colorado
Updated at 10:53 AM GMT on July 25, 2014 (4:53 AM MDT):
No AIRMET is currently available for this location.
SIGMET - Significant Meteorological Information
KAKO - Akron, Colorado
Updated at 10:53 AM GMT on July 25, 2014 (4:53 AM MDT):
No SIGMET is currently available for this location.
NOTAM - Notice to Airmen
KAKO - Akron, Colorado
Updated at 10:53 AM GMT on July 25, 2014 (4:53 AM MDT):
No NOTAM is currently available for this location.
Forecast Area
KAKO - Akron, Colorado
Updated at 10:53 AM GMT on July 25, 2014 (4:53 AM MDT):
No NOTAM is currently available for this location.
Aviation Weather Maps